Latest Weather Observations for Norfolk Island

IDN60801

Issued at 9:32 am EDT Friday 9 December 2022 (issued every 10 minutes, with the page automatically refreshed every 10 minutes)

About weather observations | Map of weather stations | Latest weather observations for NSW | Other Formats
Station Details ID: 200288 Name: NORFOLK ISLAND AERO Lat: -29.04 Lon: 167.94 Height: 111.73 m
Data from the previous 72 hours. | See also: Recent months at Norfolk Island

Observations are collected in the New South Wales time zone (Eastern Standard Time) which includes daylight savings in the summer period. Therefore 'Rain since 9am' totals and other values are based on the New South Wales time zone, which may differ from local time.

Date/Time
EDT
Temp
°C
App
Temp
°C
Dew
Point
°C
Rel
Hum
%
Delta-T
°C
Wind Press
QNH
hPa
Press
MSL
hPa
Rain since
9am
mm
Dir  Spd
km/h
Gust
km/h
Spd
kts
Gust
kts
09/09:00am 23.0 22.9 19.6 81 2.2 WNW 19 24 10 13 1012.6 1012.2 0.0
09/08:30am 22.9 23.0 19.1 79 2.4 WNW 17 22 9 12 1012.5 1012.1 0.0
09/08:00am 22.9 23.9 19.5 81 2.2 NW 13 22 7 12 1012.2 1011.8 0.0
09/07:30am 22.1 22.5 19.1 83 1.9 WNW 15 22 8 12 1012.0 1011.6 0.0
09/07:00am 21.4 22.9 19.0 86 1.5 NW 9 15 5 8 1011.8 1011.4 0.0
09/06:30am 21.0 22.6 19.1 89 1.2 WNW 9 11 5 6 1011.4 1011.0 0.0
09/06:06am 20.9 22.7 18.7 87 1.4 NW 7 13 4 7 1011.2 1010.8 0.0
09/06:00am 20.9 23.0 19.0 89 1.2 NW 6 9 3 5 1011.1 1010.7 0.0
09/05:30am 19.3 21.7 18.0 92 0.8 N 2 7 1 4 1010.7 1010.3 0.0
09/05:00am 19.3 21.4 18.0 92 0.8 NW 4 9 2 5 1010.2 1009.8 0.0
09/04:30am 19.2 21.5 17.7 91 0.9 NNW 2 7 1 4 1009.9 1009.5 0.0
09/04:00am 19.3 20.9 17.8 91 0.9 N 6 15 3 8 1009.3 1008.9 0.0
09/03:30am 19.3 20.6 17.6 90 1.0 N 7 13 4 7 1008.8 1008.4 0.0
09/03:00am 19.2 20.5 17.2 88 1.2 N 6 15 3 8 1008.7 1008.3 0.0
09/02:30am 19.2 19.2 17.2 88 1.2 N 13 20 7 11 1008.6 1008.2 0.0
09/02:00am 19.3 19.3 17.3 88 1.2 NNE 13 19 7 10 1008.1 1007.7 0.0
09/01:30am 19.4 19.1 17.4 88 1.2 NE 15 17 8 9 1008.3 1007.9 0.0
09/01:00am 19.0 19.4 17.3 90 1.0 NNE 11 15 6 8 1008.5 1008.1 0.0
09/12:30am 18.9 19.5 16.9 88 1.2 NNE 9 17 5 9 1009.0 1008.6 0.0
09/12:00am 18.6 19.2 16.9 90 1.0 NNE 9 17 5 9 1009.4 1009.0 0.0
 
Date/Time
EDT
Temp
°C
App
Temp
°C
Dew
Point
°C
Rel
Hum
%
Delta-T
°C
Wind Press
QNH
hPa
Press
MSL
hPa
Rain since
9am
mm
Dir  Spd
km/h
Gust
km/h
Spd
kts
Gust
kts
08/11:30pm 19.2 19.7 17.5 90 1.0 NNE 11 15 6 8 1009.4 1009.0 0.0
08/11:00pm 18.8 20.2 17.3 91 0.9 NNE 6 13 3 7 1009.5 1009.1 0.0
08/10:30pm 18.8 21.2 17.1 90 1.0 CALM 0 6 0 3 1010.0 1009.6 0.0
08/10:00pm 18.7 20.7 16.9 89 1.1 NNW 2 7 1 4 1010.3 1009.9 0.0
08/09:30pm 18.6 21.0 16.9 90 1.0 CALM 0 2 0 1 1010.6 1010.2 0.0
08/09:00pm 18.7 21.1 17.0 90 1.0 CALM 0 0 0 0 1010.5 1010.1 0.0
08/08:30pm 18.9 21.3 16.9 88 1.2 CALM 0 0 0 0 1010.4 1010.0 0.0
08/08:00pm 19.3 20.8 16.7 85 1.6 WNW 4 11 2 6 1010.2 1009.8 0.0
08/07:30pm 20.4 20.4 17.2 82 2.0 W 13 17 7 9 1010.3 1009.9 0.0
08/07:00pm 20.8 20.3 16.8 78 2.4 W 15 22 8 12 1010.2 1009.8 0.0
08/06:30pm 21.1 20.2 17.7 81 2.1 W 19 26 10 14 1009.9 1009.5 0.0
08/06:00pm 21.5 20.7 18.1 81 2.1 W 19 26 10 14 1009.6 1009.2 0.0
08/05:30pm 21.6 21.9 18.0 80 2.2 W 13 17 7 9 1009.3 1008.9 0.0
08/05:00pm 22.0 21.8 17.6 76 2.7 W 15 20 8 11 1009.2 1008.8 0.0
08/04:30pm 22.7 22.7 18.0 75 2.9 W 15 19 8 10 1008.8 1008.4 0.0
08/04:00pm 22.8 22.2 17.5 72 3.3 WNW 17 24 9 13 1008.9 1008.5 0.0
08/03:30pm 22.6 22.0 17.5 73 3.2 WNW 17 26 9 14 1008.9 1008.5 0.0
08/03:00pm 22.6 21.7 16.9 70 3.5 WNW 17 22 9 12 1008.7 1008.3 0.0
08/02:30pm 22.8 22.2 17.5 72 3.3 W 17 26 9 14 1008.7 1008.3 0.0
08/02:00pm 23.0 22.9 17.0 69 3.7 W 13 19 7 10 1008.5 1008.1 0.0
08/01:30pm 23.0 22.3 16.5 67 4.0 W 15 22 8 12 1008.7 1008.3 0.0
08/01:00pm 22.6 21.8 17.1 71 3.4 W 17 26 9 14 1008.9 1008.5 0.0
08/12:30pm 22.9 22.6 17.4 71 3.4 W 15 19 8 10 1008.8 1008.4 0.0
08/12:00pm 22.6 23.0 17.3 72 3.3 WSW 11 17 6 9 1008.9 1008.5 0.0
08/11:30am 22.4 22.7 17.1 72 3.3 SW 11 17 6 9 1009.2 1008.8 0.0
08/11:00am 22.8 23.2 18.1 75 3.0 SW 13 17 7 9 1009.5 1009.1 0.0
08/10:30am 21.8 21.8 17.2 75 2.8 SW 13 19 7 10 1009.3 1008.9 0.0
08/10:00am 22.1 23.7 16.8 72 3.3 NE 4 11 2 6 1009.1 1008.7 0.0
08/09:30am 21.7 22.4 17.9 79 2.4 SSW 11 15 6 8 1009.4 1009.0 0.0
08/09:00am 21.0 21.2 16.8 77 2.6 WSW 11 15 6 8 1009.4 1009.0 0.0
08/08:30am 20.9 20.9 16.3 75 2.8 SW 11 13 6 7 1009.6 1009.2 0.0
08/08:00am 21.1 21.4 16.9 77 2.6 SW 11 17 6 9 1009.8 1009.4 0.0
08/07:30am 20.7 20.6 16.1 75 2.8 SSW 11 17 6 9 1009.8 1009.4 0.0
08/07:00am 20.6 21.8 16.0 75 2.8 SW 4 9 2 5 1009.4 1009.0 0.0
08/06:30am 20.3 21.2 16.1 77 2.5 SW 6 9 3 5 1009.3 1008.9 0.0
08/06:00am 19.6 19.8 15.7 78 2.3 SW 9 13 5 7 1009.1 1008.7 0.0
08/05:30am 19.4 19.6 15.7 79 2.2 SSW 9 13 5 7 1009.0 1008.6 0.0
08/05:00am 19.1 19.0 16.0 82 1.9 SSW 11 15 6 8 1008.6 1008.2 0.0
08/04:30am 19.2 19.0 15.7 80 2.1 S 11 15 6 8 1008.3 1007.9 0.0
08/04:00am 19.1 18.2 15.8 81 2.0 S 15 19 8 10 1008.1 1007.7 0.0
08/03:30am 19.3 18.8 16.0 81 2.0 S 13 17 7 9 1007.8 1007.4 0.0
08/03:00am 19.3 18.9 16.2 82 1.9 S 13 19 7 10 1008.0 1007.6 0.0
08/02:33am 19.4 18.2 16.1 81 2.0 SSW 17 26 9 14 1008.0 1007.6 0.0
08/02:30am 19.3 17.7 16.0 81 2.0 SSW 19 26 10 14 1008.0 1007.6 0.0
08/02:00am 19.3 18.8 16.9 86 1.5 SSW 15 24 8 13 1008.2 1007.8 0.0
08/01:53am 19.3 19.2 16.9 86 1.5 SSW 13 17 7 9 1008.2 1007.8 0.0
08/01:41am 19.3 19.5 16.7 85 1.6 SSW 11 17 6 9 1008.3 1007.9 0.0
08/01:30am 19.4 18.8 16.6 84 1.7 SSW 15 19 8 10 1008.2 1007.8 0.0
08/01:00am 19.5 18.1 16.5 83 1.8 SSW 19 26 10 14 1008.5 1008.1 0.0
08/12:30am 19.4 18.5 16.8 85 1.6 SSW 17 24 9 13 1008.6 1008.2 0.0
08/12:00am 19.6 18.3 16.8 84 1.7 SSW 19 28 10 15 1008.7 1008.3 0.0
 
Date/Time
EDT
Temp
°C
App
Temp
°C
Dew
Point
°C
Rel
Hum
%
Delta-T
°C
Wind Press
QNH
hPa
Press
MSL
hPa
Rain since
9am
mm
Dir  Spd
km/h
Gust
km/h
Spd
kts
Gust
kts
07/11:30pm 19.6 18.8 17.0 85 1.6 SSW 17 24 9 13 1008.7 1008.3 0.0
07/11:00pm 19.7 17.5 16.9 84 1.7 SSW 24 35 13 19 1009.0 1008.6 0.0
07/10:30pm 19.9 17.7 16.9 83 1.8 SSW 24 32 13 17 1009.0 1008.6 0.0
07/10:00pm 20.0 17.9 17.2 84 1.7 SSW 24 32 13 17 1009.1 1008.7 0.0
07/09:30pm 20.0 18.5 17.8 87 1.4 SSW 22 32 12 17 1008.9 1008.5 0.0
07/09:00pm 20.0 18.5 17.8 87 1.4 SSW 22 32 12 17 1008.5 1008.1 0.0
07/08:30pm 19.9 18.1 17.9 88 1.2 SW 24 32 13 17 1008.2 1007.8 0.0
07/08:00pm 19.8 18.4 17.9 89 1.2 SW 22 35 12 19 1008.1 1007.7 0.0
07/07:30pm 19.9 18.5 17.9 88 1.2 SW 22 32 12 17 1007.9 1007.5 0.0
07/07:00pm 19.8 17.9 17.6 87 1.4 SW 24 30 13 16 1007.4 1006.9 0.0
07/06:30pm 19.9 17.9 17.5 86 1.5 SW 24 37 13 20 1007.3 1006.8 0.0
07/06:00pm 20.0 18.0 17.4 85 1.6 SW 24 35 13 19 1007.2 1006.7 0.0
07/05:30pm 20.2 17.8 17.4 84 1.7 SW 26 39 14 21 1007.2 1006.7 0.0
07/05:00pm 20.4 18.4 17.4 83 1.9 SW 24 33 13 18 1006.9 1006.4 0.0
07/04:30pm 20.7 18.8 17.7 83 1.9 SW 24 35 13 19 1006.6 1006.1 0.0
07/04:00pm 20.9 18.1 17.3 80 2.2 WSW 28 35 15 19 1006.6 1006.1 0.0
07/03:30pm 21.1 18.0 17.5 80 2.2 WSW 30 39 16 21 1006.7 1006.2 0.0
07/03:00pm 22.1 20.2 18.5 80 2.3 WSW 26 39 14 21 1006.4 1005.9 0.0
07/02:36pm 21.2 18.4 18.2 83 1.9 WSW 30 41 16 22 1006.8 1006.3 0.0
07/02:30pm 21.7 18.5 18.1 80 2.3 WSW 32 41 17 22 1006.8 1006.3 0.0
07/02:25pm 21.5 18.6 17.9 80 2.2 WSW 30 41 16 22 1006.8 1006.3 0.0
07/02:10pm 21.6 19.0 17.8 79 2.4 WSW 28 37 15 20 1006.8 1006.3 0.0
07/02:06pm 22.2 20.0 18.8 81 2.2 WSW 28 37 15 20 1006.9 1006.4 0.0
07/02:00pm 21.8 18.8 17.8 78 2.5 WSW 30 39 16 21 1006.9 1006.4 0.0
07/01:30pm 21.9 19.1 18.3 80 2.3 WSW 30 39 16 21 1007.1 1006.6 0.0
07/01:00pm 22.0 19.2 18.2 79 2.4 WSW 30 37 16 20 1007.2 1006.7 0.0
07/12:30pm 22.2 19.4 18.2 78 2.5 WSW 30 37 16 20 1007.3 1006.8 0.0
07/12:00pm 21.9 19.5 18.3 80 2.3 WSW 28 33 15 18 1007.2 1006.7 0.0
07/11:30am 22.2 20.4 18.8 81 2.2 WSW 26 33 14 18 1007.3 1006.8 0.0
07/11:00am 21.9 19.3 17.9 78 2.5 WSW 28 33 15 18 1007.5 1007.0 0.0
07/10:30am 21.9 19.7 17.9 78 2.5 WSW 26 33 14 18 1007.8 1007.4 0.0
07/10:00am 21.9 19.5 18.3 80 2.3 WSW 28 37 15 20 1007.7 1007.3 0.0
07/09:30am 21.6 19.2 18.2 81 2.1 WSW 28 37 15 20 1007.7 1007.3 0.0
07/09:00am 21.2 18.9 18.4 84 1.8 WSW 28 35 15 19 1007.7 1007.3 0.0
07/08:30am 21.0 19.2 17.8 82 2.0 WSW 24 32 13 17 1007.5 1007.0 0.0
07/08:00am 20.7 18.1 17.7 83 1.9 WSW 28 37 15 20 1007.5 1007.0 0.4
07/07:30am 20.6 19.1 17.6 83 1.9 WSW 22 32 12 17 1007.4 1006.9 0.4
07/07:00am 19.9 18.3 17.5 86 1.5 WSW 22 33 12 18 1007.3 1006.8 0.4
07/06:30am 19.7 18.2 17.7 88 1.2 WSW 22 30 12 16 1006.9 1006.4 0.4
07/06:00am 19.3 16.9 17.4 89 1.2 WSW 26 35 14 19 1006.5 1006.0 0.4
07/05:30am 19.2 17.7 17.7 91 0.9 WSW 22 32 12 17 1006.3 1005.8 0.4
07/05:00am 18.6 17.1 17.8 95 0.5 WSW 22 30 12 16 1006.0 1005.5 0.4
07/04:30am 18.8 17.6 18.3 97 0.3 WSW 22 28 12 15 1005.6 1005.1 0.4
07/04:00am 19.3 18.0 19.0 98 0.2 WSW 24 33 13 18 1005.3 1004.8 0.4
07/03:45am 19.3 17.6 19.0 98 0.2 WSW 26 37 14 20 1005.1 1004.6 0.4
07/03:33am 19.7 18.6 19.5 99 0.1 WSW 24 32 13 17 1005.1 1004.6 0.4
07/03:30am 19.7 18.6 19.5 99 0.1 WSW 24 32 13 17 1005.1 1004.6 0.2
07/03:20am 19.8 19.1 19.6 99 0.1 WSW 22 32 12 17 1005.0 1004.5 0.2
07/03:00am 20.1 19.6 19.9 99 0.1 WSW 22 30 12 16 1005.0 1004.5 0.2
07/02:55am 20.1 19.6 19.9 99 0.1 WSW 22 35 12 19 1004.9 1004.4 0.2
07/02:51am 20.2 19.7 20.0 99 0.1 W 22 35 12 19 1004.9 1004.4 0.2
07/02:33am 20.4 19.7 20.2 99 0.1 W 24 35 13 19 1004.9 1004.4 0.2
07/02:30am 20.4 19.7 20.2 99 0.1 W 24 35 13 19 1004.9 1004.4 0.2
07/02:00am 20.6 20.3 20.4 99 0.1 W 22 30 12 16 1004.9 1004.4 0.2
07/01:30am 20.9 20.4 20.7 99 0.1 W 24 32 13 17 1004.9 1004.4 0.2
07/01:14am 21.0 21.5 20.8 99 0.1 W 19 28 10 15 1005.2 1004.7 0.2
07/01:00am 21.0 21.5 20.8 99 0.1 W 19 26 10 14 1005.2 1004.7 0.2
07/12:54am 21.0 21.3 20.8 99 0.1 W 20 26 11 14 1005.2 1004.7 0.2
07/12:43am 21.0 20.5 20.8 99 0.1 W 24 32 13 17 1005.3 1004.8 0.2
07/12:30am 21.0 20.9 20.8 99 0.1 WNW 22 30 12 16 1005.4 1004.9 0.2
07/12:00am 21.0 20.9 20.8 99 0.1 WNW 22 30 12 16 1005.7 1005.2 0.2
 
Date/Time
EDT
Temp
°C
App
Temp
°C
Dew
Point
°C
Rel
Hum
%
Delta-T
°C
Wind Press
QNH
hPa
Press
MSL
hPa
Rain since
9am
mm
Dir  Spd
km/h
Gust
km/h
Spd
kts
Gust
kts
06/11:40pm 20.9 21.2 20.7 99 0.1 WNW 20 30 11 16 1006.0 1005.5 0.0
06/11:30pm 21.0 20.9 20.8 99 0.1 WNW 22 30 12 16 1006.1 1005.6 0.0
06/11:19pm 21.1 21.1 20.9 99 0.1 WNW 22 33 12 18 1006.2 1005.7 0.0
06/11:10pm 21.0 20.2 20.8 99 0.1 WNW 26 35 14 19 1006.3 1005.8 0.0
06/11:00pm 21.1 20.7 20.9 99 0.1 WNW 24 33 13 18 1006.3 1005.8 0.0
06/10:41pm 21.1 21.0 20.8 98 0.2 WNW 22 32 12 17 1006.5 1006.0 0.0
06/10:30pm 21.1 21.0 20.8 98 0.2 WNW 22 30 12 16 1006.6 1006.1 0.0
06/10:05pm 21.2 20.4 20.9 98 0.2 WNW 26 41 14 22 1006.9 1006.4 0.0
06/10:03pm 21.2 20.4 20.9 98 0.2 WNW 26 41 14 22 1006.8 1006.3 0.0
06/10:00pm 21.2 20.8 20.9 98 0.2 WNW 24 41 13 22 1006.9 1006.4 0.0
06/09:55pm 21.3 20.6 21.0 98 0.2 WNW 26 35 14 19 1006.8 1006.3 0.0
06/09:44pm 21.3 20.9 21.0 98 0.2 WNW 24 37 13 20 1006.8 1006.3 0.0
06/09:30pm 21.3 21.9 21.0 98 0.2 WNW 19 30 10 16 1006.8 1006.3 0.0
06/09:00pm 21.2 21.6 20.9 98 0.2 WNW 20 33 11 18 1006.6 1006.1 0.0
06/08:30pm 21.1 21.6 20.8 98 0.2 WNW 19 30 10 16 1006.2 1005.7 0.0
06/08:00pm 21.0 21.4 20.7 98 0.2 WNW 19 26 10 14 1006.0 1005.5 0.0
06/07:30pm 21.0 21.3 20.5 97 0.3 WNW 19 28 10 15 1005.8 1005.3 0.0
06/07:00pm 20.9 21.2 20.4 97 0.3 WNW 19 26 10 14 1005.6 1005.1 0.0
06/06:30pm 21.2 21.9 20.5 96 0.5 WNW 17 24 9 13 1005.3 1004.8 0.0
06/06:00pm 21.5 21.8 20.7 95 0.5 W 20 30 11 16 1005.1 1004.6 0.0
06/05:30pm 21.5 20.6 20.7 95 0.5 W 26 32 14 17 1004.9 1004.4 0.0
06/05:00pm 21.5 21.0 20.8 96 0.5 W 24 33 13 18 1004.7 1004.2 0.0
06/04:30pm 21.5 20.6 20.7 95 0.5 W 26 37 14 20 1004.4 1004.0 0.0
06/04:07pm 21.6 20.8 20.8 95 0.5 W 26 33 14 18 1004.3 1003.9 0.0
06/04:00pm 21.5 20.2 20.7 95 0.5 W 28 35 15 19 1004.3 1003.9 0.0
06/03:56pm 21.6 20.8 20.8 95 0.5 W 26 35 14 19 1004.3 1003.9 0.0
06/03:48pm 21.9 20.8 21.1 95 0.5 W 28 37 15 20 1004.2 1003.8 0.0
06/03:30pm 21.8 21.1 21.0 95 0.5 WNW 26 35 14 19 1004.3 1003.9 0.0
06/03:21pm 22.1 21.1 21.3 95 0.5 WNW 28 35 15 19 1004.2 1003.8 0.0
06/03:00pm 22.0 21.8 21.2 95 0.5 W 24 33 13 18 1004.4 1004.0 0.0
06/02:49pm 22.2 21.6 21.2 94 0.7 W 26 35 14 19 1004.4 1004.0 0.0
06/02:30pm 22.7 22.6 21.5 93 0.8 W 24 32 13 17 1004.3 1003.9 0.0
06/02:00pm 23.2 22.5 21.8 92 0.9 WNW 28 35 15 19 1004.5 1004.1 0.0
06/01:30pm 23.5 23.0 22.1 92 0.9 WNW 28 37 15 20 1004.7 1004.2 0.0
06/01:00pm 23.0 23.0 21.6 92 0.9 WNW 24 35 13 19 1005.0 1004.5 0.0
06/12:30pm 23.0 23.9 22.7 98 0.2 WNW 22 35 12 19 1005.2 1004.7 0.0
06/12:18pm 22.3 22.8 22.0 98 0.2 WNW 22 30 12 16 1005.2 1004.7 0.0
06/12:13pm 22.5 23.2 22.2 98 0.2 WNW 22 32 12 17 1005.3 1004.8 0.0
06/12:00pm 22.1 22.5 21.8 98 0.2 WNW 22 32 12 17 1005.4 1004.9 0.0
06/11:30am 22.2 22.7 21.9 98 0.2 WNW 22 33 12 18 1005.6 1005.1 0.0
06/11:00am 22.4 22.7 22.2 99 0.1 WNW 24 33 13 18 1005.6 1005.1 0.0
06/10:30am 22.4 22.3 22.2 99 0.1 WNW 26 37 14 20 1005.9 1005.4 0.0
06/10:00am 22.3 22.8 22.0 98 0.2 NW 22 33 12 18 1005.9 1005.4 0.0
06/09:30am 22.6 23.3 22.3 98 0.2 NW 22 39 12 21 1005.9 1005.4 0.0

Other formats

Comma delimited format used in spreadsheet applications
http://www.bom.gov.au/fwo/IDN60801/IDN60801.94996.axf

JavaScript Object Notation format (JSON) in row-major order
http://www.bom.gov.au/fwo/IDN60801/IDN60801.94996.json

Data quality

Most of these data are generated automatically and are frequently updated. Quality checks on data are not normally performed. It is possible for incorrect values to appear. Refer to information at About Latest Weather Observations and please check the disclaimer before using these data.